Time;durP1;ratioP1;P1;durP2;ratioP2;P2;SDS_P1;SDS_P2;PMS_P1;PMS_P2;Temp;Humidity;BMP_temperature;BMP_pressure;BME280_temperature;BME280_humidity;BME280_pressure;Samples;Min_cycle;Max_cycle;Signal;HPM_P1;HPM_P2
2023/12/27 00:00:39;;;;;;;3.47;1.20;;;;;;;-145.69;59.75;52246.34;4916009;29;20596;-80
2023/12/27 00:03:05;;;;;;;4.63;1.47;;;;;;;-145.69;59.34;52250.31;4915368;29;20215;-80
2023/12/27 00:05:32;;;;;;;3.60;1.50;;;;;;;-145.69;59.53;52262.19;4916643;29;20555;-80
2023/12/27 00:07:57;;;;;;;3.83;1.57;;;;;;;-145.69;59.54;52266.16;4919692;29;20211;-80
2023/12/27 00:10:27;;;;;;;2.70;1.30;;;;;;;-145.69;59.26;52272.09;4919160;29;20242;-79
2023/12/27 00:12:54;;;;;;;2.80;1.43;;;;;;;-145.69;59.33;52268.13;4919127;29;20201;-80
2023/12/27 00:15:20;;;;;;;3.37;1.70;;;;;;;-145.69;59.71;52262.19;4918972;29;20204;-80
2023/12/27 00:17:47;;;;;;;5.93;1.80;;;;;;;-145.69;59.52;52295.84;4909883;29;20227;-80
2023/12/27 00:20:13;;;;;;;2.57;1.50;;;;;;;-145.69;59.18;52246.34;4919431;29;20212;-80
2023/12/27 00:22:40;;;;;;;5.43;1.70;;;;;;;-145.69;59.53;52234.47;4918960;29;20204;-79
2023/12/27 00:25:09;;;;;;;3.10;1.60;;;;;;;-145.69;59.12;52236.44;4919400;29;20208;-79
2023/12/27 00:27:38;;;;;;;2.63;1.50;;;;;;;-145.69;59.61;52274.06;4918987;29;20204;-80
2023/12/27 00:30:06;;;;;;;4.47;1.60;;;;;;;-145.69;59.21;52244.38;4919024;29;20236;-78
2023/12/27 00:32:32;;;;;;;3.93;2.03;;;;;;;-145.69;59.38;52282.00;4908202;29;20201;-79
2023/12/27 00:34:59;;;;;;;2.60;1.70;;;;;;;-145.69;59.03;52246.34;4900435;29;20216;-80
2023/12/27 00:37:25;;;;;;;4.87;2.53;;;;;;;-145.69;59.01;52224.56;4900046;29;20209;-79
2023/12/27 00:39:52;;;;;;;4.53;1.60;;;;;;;-145.69;59.46;52250.31;4900971;29;20572;-80
2023/12/27 00:42:19;;;;;;;4.90;1.83;;;;;;;-145.69;59.06;52254.28;4918398;29;20208;-79
2023/12/27 00:44:50;;;;;;;3.67;1.93;;;;;;;-145.69;58.94;52224.56;4919134;29;20231;-79
2023/12/27 00:47:16;;;;;;;5.60;1.70;;;;;;;-145.69;58.98;52270.13;4917609;29;20197;-79
2023/12/27 00:49:43;;;;;;;3.17;2.00;;;;;;;-145.69;59.25;52248.34;4918940;29;20260;-80
2023/12/27 00:52:10;;;;;;;4.90;1.90;;;;;;;-145.69;59.71;52254.28;4917667;29;20208;-79
2023/12/27 00:54:37;;;;;;;5.03;1.90;;;;;;;-145.69;59.13;52264.16;4917067;29;20287;-79
2023/12/27 00:57:03;;;;;;;2.73;1.70;;;;;;;-145.69;59.43;52248.34;4918056;29;20196;-78
2023/12/27 00:59:30;;;;;;;3.80;1.80;;;;;;;-145.69;59.75;52258.22;4918753;29;20563;-79
2023/12/27 01:01:58;;;;;;;4.97;1.93;;;;;;;-145.69;59.41;52266.16;4917969;29;20200;-79
2023/12/27 01:04:24;;;;;;;2.83;1.87;;;;;;;-145.69;60.00;52282.00;4917046;29;20203;-79
2023/12/27 01:06:52;;;;;;;2.33;1.70;;;;;;;-145.69;59.86;52248.34;4917850;29;20196;-80
2023/12/27 01:09:19;;;;;;;2.30;1.70;;;;;;;-145.69;59.66;52252.28;4918556;29;20246;-79
2023/12/27 01:11:45;;;;;;;2.57;1.77;;;;;;;-145.69;59.73;52270.13;4917981;29;20598;-80
2023/12/27 01:14:12;;;;;;;5.30;1.80;;;;;;;-145.69;59.61;52258.22;4918107;29;20298;-79
2023/12/27 01:16:38;;;;;;;3.03;1.87;;;;;;;-145.69;59.32;52244.38;4917652;29;20204;-80
2023/12/27 01:19:06;;;;;;;2.43;1.50;;;;;;;-145.69;59.41;52222.59;4918057;29;20212;-79
2023/12/27 01:21:33;;;;;;;5.00;1.83;;;;;;;-145.69;59.36;52274.06;4918197;29;20204;-80
2023/12/27 01:23:59;;;;;;;5.00;1.90;;;;;;;-145.69;59.78;52252.28;4917632;29;20207;-80
2023/12/27 01:26:26;;;;;;;5.00;1.97;;;;;;;-145.69;59.56;52256.25;4917934;29;20200;-78
2023/12/27 01:28:52;;;;;;;2.97;1.70;;;;;;;-145.69;59.16;52266.16;4918131;29;20212;-80
2023/12/27 01:31:18;;;;;;;2.73;1.50;;;;;;;-145.69;59.58;52246.34;4917021;29;20283;-80
2023/12/27 01:33:45;;;;;;;2.60;1.40;;;;;;;-145.69;58.84;52270.13;4915897;29;20200;-79
2023/12/27 01:36:13;;;;;;;2.47;1.53;;;;;;;-145.69;59.26;52214.66;4917508;29;20199;-80
2023/12/27 01:38:39;;;;;;;3.37;1.83;;;;;;;-145.69;59.63;52238.44;4917774;29;20196;-80
2023/12/27 01:41:06;;;;;;;2.30;1.47;;;;;;;-145.69;59.93;52260.22;4917619;29;20204;-80
2023/12/27 01:43:32;;;;;;;2.27;1.50;;;;;;;-145.69;60.04;52264.16;4917770;29;20245;-79
2023/12/27 01:45:59;;;;;;;4.60;1.63;;;;;;;-145.69;59.86;52264.16;4917449;29;20541;-79
2023/12/27 01:48:28;;;;;;;2.97;1.83;;;;;;;-145.69;60.04;52270.13;4898690;29;20197;-80
2023/12/27 01:50:56;;;;;;;3.33;1.83;;;;;;;-145.69;59.83;52246.34;4914840;29;20235;-80
2023/12/27 01:53:25;;;;;;;4.43;1.63;;;;;;;-145.69;59.69;52274.06;4917446;29;20231;-80
2023/12/27 01:55:53;;;;;;;3.27;1.80;;;;;;;-145.69;59.94;52276.06;4917427;29;20545;-79
2023/12/27 01:58:21;;;;;;;4.97;1.77;;;;;;;-145.69;59.69;52266.16;4917590;29;20208;-79
2023/12/27 02:00:48;;;;;;;4.37;1.63;;;;;;;-145.69;60.37;52240.41;4916445;29;20291;-80
2023/12/27 02:03:17;;;;;;;2.63;1.37;;;;;;;-145.69;60.14;52262.19;4916179;29;20215;-79
2023/12/27 02:05:45;;;;;;;1.93;1.37;;;;;;;-145.69;60.04;52250.31;4916851;29;20258;-80
2023/12/27 02:08:12;;;;;;;1.83;1.50;;;;;;;-145.69;60.01;52258.22;4917121;29;20283;-80
2023/12/27 02:10:42;;;;;;;2.67;1.33;;;;;;;-145.69;59.49;52250.31;4917358;29;20609;-79
2023/12/27 02:13:08;;;;;;;2.27;1.43;;;;;;;-145.69;59.90;52254.28;4916912;29;20204;-80
2023/12/27 02:15:35;;;;;;;4.50;1.43;;;;;;;-145.69;60.34;52282.00;4916970;29;20218;-79
2023/12/27 02:18:04;;;;;;;3.77;1.30;;;;;;;-145.69;59.96;52258.22;4916841;29;20251;-80
2023/12/27 02:20:31;;;;;;;4.93;1.00;;;;;;;-145.69;60.04;52242.38;4917197;29;20205;-80
2023/12/27 02:23:00;;;;;;;1.10;1.00;;;;;;;-145.69;60.04;52289.91;4916892;29;20206;-80
2023/12/27 02:25:28;;;;;;;3.90;1.10;;;;;;;-145.69;60.19;52291.91;4916003;29;20204;-79
2023/12/27 02:27:55;;;;;;;3.83;1.50;;;;;;;-145.69;60.33;52266.16;4916184;29;20260;-79
2023/12/27 02:30:23;;;;;;;2.73;1.57;;;;;;;-145.69;61.01;52270.13;4917070;29;20212;-79
2023/12/27 02:32:50;;;;;;;3.50;1.70;;;;;;;-145.69;61.21;52272.09;4915697;29;20533;-80
2023/12/27 02:35:17;;;;;;;5.20;1.60;;;;;;;-145.69;61.56;52293.88;4916989;29;20203;-80
2023/12/27 02:37:44;;;;;;;4.07;2.07;;;;;;;-145.69;61.92;52287.94;4916922;29;20204;-80
2023/12/27 02:40:11;;;;;;;4.47;1.40;;;;;;;-145.69;61.13;52291.91;4916803;29;20208;-80
2023/12/27 02:42:40;;;;;;;3.53;1.70;;;;;;;-145.69;61.64;52299.81;4916760;29;20545;-79
2023/12/27 02:45:07;;;;;;;2.37;1.70;;;;;;;-145.69;62.05;52274.06;4916407;29;20200;-79
2023/12/27 02:47:34;;;;;;;3.93;1.60;;;;;;;-145.69;61.49;52305.75;4914897;29;20200;-79
2023/12/27 02:50:01;;;;;;;2.73;1.57;;;;;;;-145.69;61.59;52301.81;4915777;29;20196;-79
2023/12/27 02:52:27;;;;;;;4.33;1.40;;;;;;;-145.69;61.17;52309.72;4901874;29;20236;-79
2023/12/27 02:54:55;;;;;;;1.57;1.30;;;;;;;-145.69;62.29;52303.78;4897901;29;20687;-80
2023/12/27 02:57:21;;;;;;;1.67;1.20;;;;;;;-145.69;63.11;52274.06;4912944;29;20203;-80
2023/12/27 02:59:49;;;;;;;2.80;1.37;;;;;;;-145.69;62.61;52289.91;4916304;29;20208;-79
2023/12/27 03:02:16;;;;;;;3.00;1.50;;;;;;;-145.69;62.49;52305.75;4916052;29;20196;-79
2023/12/27 03:04:42;;;;;;;3.57;1.57;;;;;;;-145.69;62.99;52287.94;4916541;29;20199;-79
2023/12/27 03:07:09;;;;;;;5.17;1.53;;;;;;;-145.69;63.20;52289.91;4916550;29;20204;-78
2023/12/27 03:09:36;;;;;;;2.57;1.87;;;;;;;-145.69;63.44;52278.03;4916256;29;20259;-79
2023/12/27 03:12:02;;;;;;;2.70;1.43;;;;;;;-145.69;62.92;52305.75;4916348;29;20637;-79
2023/12/27 03:14:29;;;;;;;1.43;1.20;;;;;;;-145.69;62.96;52289.91;4916505;29;20207;-79
2023/12/27 03:16:57;;;;;;;2.37;1.50;;;;;;;-145.69;63.06;52303.78;4911208;29;20205;-80
2023/12/27 03:19:25;;;;;;;6.30;1.40;;;;;;;-145.69;63.44;52303.78;4897256;29;20626;-79
2023/12/27 03:21:51;;;;;;;3.40;1.60;;;;;;;-145.69;64.49;52289.91;4897585;29;20220;-80
2023/12/27 03:24:18;;;;;;;4.07;1.60;;;;;;;-145.69;64.55;52333.47;4900428;29;20212;-79
2023/12/27 03:26:44;;;;;;;6.40;1.90;;;;;;;-145.69;65.57;52301.81;4916406;29;20294;-79
2023/12/27 03:29:11;;;;;;;2.40;1.90;;;;;;;-145.69;65.43;52307.75;4915984;29;20207;-79
2023/12/27 03:31:37;;;;;;;2.17;1.47;;;;;;;-145.69;66.41;52301.81;4915767;29;20236;-79
2023/12/27 03:34:05;;;;;;;5.23;1.37;;;;;;;-145.69;67.19;52303.78;4916312;29;20206;-79
2023/12/27 03:36:32;;;;;;;2.53;1.33;;;;;;;-145.69;66.66;52270.13;4916281;29;20200;-78
2023/12/27 03:38:58;;;;;;;2.87;1.67;;;;;;;-145.69;67.42;52299.81;4916366;29;20679;-79
2023/12/27 03:41:25;;;;;;;5.97;1.43;;;;;;;-145.69;67.16;52317.66;4918282;29;20219;-79
2023/12/27 03:43:54;;;;;;;4.70;1.60;;;;;;;-145.69;66.80;52301.81;4920043;29;20204;-80
2023/12/27 03:46:21;;;;;;;2.67;1.40;;;;;;;-145.69;66.37;52327.53;4919560;29;20200;-79
2023/12/27 03:48:47;;;;;;;3.73;1.30;;;;;;;-145.69;66.43;52274.06;4919547;29;20690;-79
2023/12/27 03:51:15;;;;;;;3.67;1.60;;;;;;;-145.69;66.31;52293.88;4919060;29;20711;-79
2023/12/27 03:53:42;;;;;;;2.63;1.47;;;;;;;-145.69;66.12;52317.66;4919695;29;20212;-79
2023/12/27 03:56:09;;;;;;;2.10;1.37;;;;;;;-145.69;66.24;52282.00;4919077;29;20290;-79
2023/12/27 03:58:36;;;;;;;4.37;1.27;;;;;;;-145.69;66.11;52278.03;4919631;29;20545;-80
2023/12/27 04:01:02;;;;;;;4.00;1.33;;;;;;;-145.69;66.76;52325.56;4919444;29;20844;-79
2023/12/27 04:03:29;;;;;;;3.53;1.67;;;;;;;-145.69;67.63;52341.41;4908702;29;20209;-79
2023/12/27 04:05:55;;;;;;;1.73;1.40;;;;;;;-145.69;67.60;52331.50;4900635;29;20205;-79
2023/12/27 04:08:23;;;;;;;2.37;1.43;;;;;;;-145.69;68.00;52321.59;4916439;29;20200;-79
2023/12/27 04:10:50;;;;;;;4.33;1.43;;;;;;;-145.69;67.76;52303.78;4919345;29;20228;-80
2023/12/27 04:13:16;;;;;;;2.43;1.50;;;;;;;-145.69;68.45;52295.84;4919168;29;20208;-79
2023/12/27 04:15:43;;;;;;;5.47;1.60;;;;;;;-145.69;67.58;52303.78;4919177;29;20712;-79
2023/12/27 04:18:11;;;;;;;3.33;1.50;;;;;;;-145.69;68.57;52293.88;4919306;29;20193;-79
2023/12/27 04:20:38;;;;;;;2.73;1.50;;;;;;;-145.69;67.63;52323.59;4919253;29;20264;-79
2023/12/27 04:23:04;;;;;;;4.50;1.20;;;;;;;-145.69;67.28;52289.91;4918931;29;20568;-79
2023/12/27 04:25:32;;;;;;;1.93;1.30;;;;;;;-145.69;67.19;52329.53;4918883;29;20196;-79
2023/12/27 04:27:59;;;;;;;4.50;1.80;;;;;;;-145.69;67.68;52339.44;4919154;29;20197;-79
2023/12/27 04:30:25;;;;;;;2.23;1.00;;;;;;;-145.69;68.08;52333.47;4918949;29;20200;-79
2023/12/27 04:32:51;;;;;;;2.30;1.40;;;;;;;-145.69;68.92;52317.66;4917138;29;20267;-79
2023/12/27 04:35:18;;;;;;;2.83;1.40;;;;;;;-145.69;68.64;52331.50;4919050;29;20212;-78
2023/12/27 04:37:44;;;;;;;4.20;1.33;;;;;;;-145.69;68.37;52289.91;4918648;29;20239;-78
2023/12/27 04:40:11;;;;;;;4.07;2.13;;;;;;;-145.69;68.70;52305.75;4918870;29;20549;-78
2023/12/27 04:42:39;;;;;;;2.67;1.50;;;;;;;-145.69;68.89;52321.59;4918908;29;20204;-79
2023/12/27 04:45:07;;;;;;;4.90;1.53;;;;;;;-145.69;69.49;52307.75;4918501;29;20219;-79
2023/12/27 04:47:33;;;;;;;3.70;1.33;;;;;;;-145.69;68.64;52303.78;4899821;29;20204;-78
2023/12/27 04:49:59;;;;;;;2.13;1.30;;;;;;;-145.69;68.17;52303.78;4916949;29;20560;-79
2023/12/27 04:52:25;;;;;;;4.63;1.43;;;;;;;-145.69;68.01;52317.66;4917902;29;20275;-80
2023/12/27 04:54:52;;;;;;;2.57;1.77;;;;;;;-145.69;68.37;52285.97;4913526;29;20200;-79
2023/12/27 04:57:19;;;;;;;1.50;1.30;;;;;;;-145.69;67.83;52315.66;4918802;29;20660;-78
2023/12/27 04:59:47;;;;;;;4.53;2.13;;;;;;;-145.69;67.69;52323.59;4918201;29;20208;-78
2023/12/27 05:02:13;;;;;;;3.80;1.63;;;;;;;-145.69;67.68;52305.75;4918471;29;20205;-79
2023/12/27 05:04:40;;;;;;;2.23;1.60;;;;;;;-145.69;67.62;52309.72;4917876;29;20207;-78
2023/12/27 05:07:06;;;;;;;2.43;1.37;;;;;;;-145.69;67.42;52343.38;4918451;29;20199;-79
2023/12/27 05:09:33;;;;;;;4.83;1.47;;;;;;;-145.69;67.75;52337.44;4918475;29;20283;-79
2023/12/27 05:11:59;;;;;;;1.87;1.50;;;;;;;-145.69;68.93;52349.31;4918407;29;20224;-79
2023/12/27 05:14:26;;;;;;;4.27;1.50;;;;;;;-145.69;68.87;52321.59;4917550;29;20679;-79
2023/12/27 05:16:55;;;;;;;3.90;1.30;;;;;;;-145.69;69.38;52323.59;4917542;29;20200;-79
2023/12/27 05:19:21;;;;;;;1.43;1.30;;;;;;;-145.69;68.74;52305.75;4918369;29;20211;-78
2023/12/27 05:21:48;;;;;;;3.90;1.60;;;;;;;-145.69;68.97;52295.84;4918226;29;20695;-79
2023/12/27 05:24:14;;;;;;;3.00;1.40;;;;;;;-145.69;68.62;52313.69;4917959;29;20223;-79
2023/12/27 05:26:41;;;;;;;2.00;1.20;;;;;;;-145.69;68.72;52325.56;4917291;29;20200;-79
2023/12/27 05:29:07;;;;;;;2.60;1.20;;;;;;;-145.69;68.54;52337.44;4917923;29;20204;-79
2023/12/27 05:31:33;;;;;;;2.07;1.50;;;;;;;-145.69;67.74;52321.59;4918241;29;20227;-79
2023/12/27 05:34:01;;;;;;;2.33;1.60;;;;;;;-145.69;68.27;52317.66;4917441;29;20196;-79
2023/12/27 05:36:28;;;;;;;2.03;1.40;;;;;;;-145.69;68.22;52349.31;4917773;29;20207;-78
2023/12/27 05:38:54;;;;;;;6.40;1.40;;;;;;;-145.69;68.25;52323.59;4917882;29;20243;-79
2023/12/27 05:41:24;;;;;;;3.08;1.52;;;;;;;-145.69;68.26;52313.69;4917912;29;20722;-80
2023/12/27 05:43:50;;;;;;;1.97;1.27;;;;;;;-145.69;68.41;52329.53;4917661;29;20208;-79
2023/12/27 05:46:17;;;;;;;5.33;1.50;;;;;;;-145.69;68.20;52353.28;4917425;29;20207;-79
2023/12/27 05:48:43;;;;;;;4.00;1.50;;;;;;;-145.69;68.08;52309.72;4914919;29;20553;-79
2023/12/27 05:51:11;;;;;;;2.43;1.50;;;;;;;-145.69;68.65;52337.44;4917670;29;20197;-79
2023/12/27 05:53:38;;;;;;;5.30;1.50;;;;;;;-145.69;68.59;52337.44;4916764;29;20236;-79
2023/12/27 05:56:05;;;;;;;4.00;1.43;;;;;;;-145.69;68.45;52325.56;4917511;29;20200;-79
2023/12/27 05:58:33;;;;;;;4.33;1.40;;;;;;;-145.69;67.72;52293.88;4917360;29;20223;-79
2023/12/27 06:00:59;;;;;;;8.07;2.47;;;;;;;-145.69;68.29;52325.56;4917187;29;20200;-79
2023/12/27 06:03:25;;;;;;;3.53;1.70;;;;;;;-145.69;68.32;52325.56;4916714;29;20222;-79
2023/12/27 06:05:52;;;;;;;1.30;1.20;;;;;;;-145.69;68.72;52317.66;4917324;29;20208;-78
2023/12/27 06:08:21;;;;;;;3.17;1.40;;;;;;;-145.69;68.52;52355.28;4917372;29;20212;-79
2023/12/27 06:10:47;;;;;;;3.40;1.50;;;;;;;-145.69;68.22;52321.59;4916993;29;20292;-79
2023/12/27 06:13:14;;;;;;;2.50;1.40;;;;;;;-145.69;68.25;52317.66;4917334;29;20232;-79
2023/12/27 06:15:40;;;;;;;3.20;1.53;;;;;;;-145.69;68.00;52331.50;4917399;29;20203;-79
2023/12/27 06:18:06;;;;;;;3.43;1.40;;;;;;;-145.69;68.40;52321.59;4917163;29;20208;-79
2023/12/27 06:20:33;;;;;;;3.40;1.50;;;;;;;-145.69;67.97;52331.50;4917032;29;20208;-79
2023/12/27 06:22:59;;;;;;;3.90;1.63;;;;;;;-145.69;68.31;52343.38;4916876;29;20203;-78
2023/12/27 06:25:27;;;;;;;2.53;1.30;;;;;;;-145.69;68.59;52325.56;4917011;29;20256;-78
2023/12/27 06:27:54;;;;;;;2.47;1.50;;;;;;;-145.69;67.98;52365.16;4916840;29;20201;-79
2023/12/27 06:30:20;;;;;;;2.77;1.43;;;;;;;-145.69;68.47;52309.72;4917152;29;20208;-78
2023/12/27 06:32:47;;;;;;;2.60;1.60;;;;;;;-145.69;67.40;52333.47;4917089;29;20232;-78
2023/12/27 06:35:13;;;;;;;2.23;1.50;;;;;;;-145.69;66.71;52297.84;4916648;29;20204;-79
2023/12/27 06:37:40;;;;;;;3.47;1.60;;;;;;;-145.69;66.12;52349.31;4916592;29;20215;-79
2023/12/27 06:40:08;;;;;;;3.40;1.60;;;;;;;-145.69;66.16;52337.44;4916230;29;20197;-78
2023/12/27 06:42:36;;;;;;;2.47;1.37;;;;;;;-145.69;66.49;52317.66;4916892;29;20260;-78
2023/12/27 06:45:02;;;;;;;4.23;1.53;;;;;;;-145.69;65.83;52309.72;4916294;29;20220;-79
2023/12/27 06:47:30;;;;;;;2.23;1.40;;;;;;;-145.69;66.38;52321.59;4916948;29;20210;-79
2023/12/27 06:49:56;;;;;;;4.70;1.53;;;;;;;-145.69;64.39;52295.84;4916433;29;20206;-78
2023/12/27 06:52:23;;;;;;;2.23;1.40;;;;;;;-145.69;64.25;52333.47;4916412;29;20239;-78
2023/12/27 06:54:49;;;;;;;3.30;1.50;;;;;;;-145.69;61.80;52319.63;4916067;29;20200;-79
2023/12/27 06:57:16;;;;;;;1.97;1.63;;;;;;;-145.69;61.61;52321.59;4914723;29;20203;-79
2023/12/27 06:59:43;;;;;;;1.90;1.50;;;;;;;-145.69;61.21;52319.63;4916343;29;20212;-79
2023/12/27 07:02:10;;;;;;;3.03;1.47;;;;;;;-145.69;61.37;52333.47;4916327;29;20200;-78
2023/12/27 07:04:37;;;;;;;2.77;1.40;;;;;;;-145.69;59.45;52278.03;4916417;29;20196;-78
2023/12/27 07:07:04;;;;;;;4.37;1.33;;;;;;;-145.69;57.64;52301.81;4916666;29;20204;-79
2023/12/27 07:09:31;;;;;;;1.30;1.20;;;;;;;-145.69;58.49;52323.59;4916362;29;20267;-79
2023/12/27 07:11:57;;;;;;;2.63;1.40;;;;;;;-145.69;57.50;52329.53;4916624;29;20308;-79
2023/12/27 07:14:24;;;;;;;4.43;1.63;;;;;;;-145.69;56.13;52325.56;4916457;29;20619;-79
2023/12/27 07:16:51;;;;;;;2.63;1.40;;;;;;;-145.69;54.68;52305.75;4912187;29;20196;-78
2023/12/27 07:19:18;;;;;;;3.10;1.47;;;;;;;-145.69;56.09;52309.72;4913068;29;20204;-78
2023/12/27 07:21:44;;;;;;;5.50;1.57;;;;;;;-145.69;54.09;52315.66;4916416;29;20204;-79
2023/12/27 07:24:11;;;;;;;3.37;1.60;;;;;;;-145.69;52.09;52319.63;4916624;29;20215;-79
2023/12/27 07:26:37;;;;;;;1.73;1.30;;;;;;;-145.69;52.42;52293.88;4916416;29;20252;-79
2023/12/27 07:29:04;;;;;;;4.80;1.60;;;;;;;-145.69;52.44;52319.63;4916717;29;20200;-79
2023/12/27 07:31:30;;;;;;;2.97;1.50;;;;;;;-145.69;52.42;52285.97;4915900;29;20667;-79
2023/12/27 07:33:58;;;;;;;4.00;1.40;;;;;;;-145.69;51.53;52299.81;4916467;29;20283;-79
2023/12/27 07:36:25;;;;;;;2.57;1.43;;;;;;;-145.69;51.97;52282.00;4915203;29;20231;-79
2023/12/27 07:38:51;;;;;;;1.47;1.20;;;;;;;-145.69;51.66;52301.81;4915912;29;20208;-79
2023/12/27 07:41:18;;;;;;;3.63;1.33;;;;;;;-145.69;51.16;52309.72;4915494;29;20207;-79
2023/12/27 07:43:44;;;;;;;3.47;1.30;;;;;;;-145.69;50.24;52297.84;4915870;29;20200;-79
2023/12/27 07:46:14;;;;;;;2.60;1.50;;;;;;;-145.69;50.06;52317.66;4915770;29;20233;-78
2023/12/27 07:48:40;;;;;;;2.93;1.33;;;;;;;-145.69;49.91;52333.47;4915492;29;20196;-79
2023/12/27 07:51:09;;;;;;;3.07;1.50;;;;;;;-145.69;49.80;52297.84;4915491;29;20525;-78
2023/12/27 07:53:36;;;;;;;1.60;1.13;;;;;;;-145.69;50.03;52303.78;4915602;29;20236;-78
2023/12/27 07:56:09;;;;;;;4.20;1.10;;;;;;;-145.69;47.00;52315.66;4915082;29;20691;-80
2023/12/27 07:58:38;;;;;;;3.80;1.30;;;;;;;-145.69;48.20;52315.66;4915192;29;20387;-79
2023/12/27 08:01:05;;;;;;;2.07;1.10;;;;;;;-145.69;48.24;52272.09;4914488;29;20208;-78
2023/12/27 08:03:34;;;;;;;2.80;1.30;;;;;;;-145.69;47.14;52285.97;4912138;29;20208;-78
2023/12/27 08:06:05;;;;;;;4.77;1.40;;;;;;;-145.69;46.64;52283.97;4915628;29;20201;-78
2023/12/27 08:08:34;;;;;;;2.00;1.33;;;;;;;-145.69;47.38;52256.25;4915365;29;20287;-80
2023/12/27 08:11:03;;;;;;;3.37;1.50;;;;;;;-145.69;46.72;52285.97;4915352;29;20251;-79
2023/12/27 08:13:36;;;;;;;4.10;1.60;;;;;;;-145.69;46.01;52315.66;4915112;29;20227;-79
2023/12/27 08:16:03;;;;;;;3.07;1.40;;;;;;;-145.69;46.10;52282.00;4904289;29;20200;-79
2023/12/27 08:18:31;;;;;;;5.27;1.50;;;;;;;-145.69;47.49;52276.06;4915185;29;20656;-79
2023/12/27 08:20:58;;;;;;;2.07;1.37;;;;;;;-145.69;47.32;52276.06;4914987;29;20196;-80
2023/12/27 08:23:27;;;;;;;7.00;1.50;;;;;;;-145.69;47.25;52282.00;4915129;29;20208;-79
2023/12/27 08:26:00;;;;;;;1.47;1.07;;;;;;;-145.69;46.63;52276.06;4915011;29;20204;-79
2023/12/27 08:28:35;;;;;;;2.60;1.20;;;;;;;-145.69;45.37;52266.16;4918656;29;20587;-79
2023/12/27 08:31:05;;;;;;;4.50;1.33;;;;;;;-145.69;44.08;52258.22;4918304;29;20659;-79
2023/12/27 08:33:32;;;;;;;9.40;1.47;;;;;;;-145.69;45.92;52291.91;4918291;29;20315;-79
2023/12/27 08:36:01;;;;;;;6.30;1.30;;;;;;;-145.69;46.16;52254.28;4917517;29;20256;-79
2023/12/27 08:38:33;;;;;;;2.97;1.23;;;;;;;-145.69;43.92;52258.22;4918067;29;20207;-79
2023/12/27 08:41:02;;;;;;;2.10;1.27;;;;;;;-145.69;44.60;52293.88;4918452;29;20215;-79
2023/12/27 08:43:33;;;;;;;2.37;1.10;;;;;;;-145.69;44.38;52250.31;4918372;29;20204;-79
2023/12/27 08:46:02;;;;;;;1.23;1.10;;;;;;;-145.69;44.25;52274.06;4918216;29;20204;-79
2023/12/27 08:48:29;;;;;;;4.13;1.33;;;;;;;-145.69;44.83;52282.00;4917744;29;20235;-79
2023/12/27 08:51:00;;;;;;;2.93;1.37;;;;;;;-145.69;45.16;52283.97;4907341;29;20628;-80
2023/12/27 08:53:26;;;;;;;2.00;1.20;;;;;;;-145.69;43.12;52274.06;4918026;29;20236;-80
2023/12/27 08:55:56;;;;;;;1.87;1.40;;;;;;;-145.69;43.96;52289.91;4918245;29;20207;-80
2023/12/27 08:58:36;;;;;;;3.33;1.20;;;;;;;-145.69;42.51;52252.28;4917060;29;20212;-80
2023/12/27 09:01:03;;;;;;;1.70;1.03;;;;;;;-145.69;43.36;52236.44;4917954;29;20219;-81
2023/12/27 09:03:31;;;;;;;3.70;1.07;;;;;;;-145.69;42.39;52256.25;4917825;29;20199;-80
2023/12/27 09:06:00;;;;;;;1.70;1.00;;;;;;;-145.69;42.41;52258.22;4917920;29;20227;-81
2023/12/27 09:08:31;;;;;;;1.93;1.00;;;;;;;-145.69;40.26;52246.34;4918074;29;20672;-80
2023/12/27 09:10:58;;;;;;;3.00;1.00;;;;;;;-145.69;39.79;52202.78;4917244;29;20231;-80
2023/12/27 09:13:36;;;;;;;3.47;1.00;;;;;;;-145.69;39.97;52256.25;4918089;29;20688;-80
2023/12/27 09:16:05;;;;;;;4.23;1.20;;;;;;;-145.69;40.60;52293.88;4917576;29;20203;-82
2023/12/27 09:18:33;;;;;;;3.23;1.03;;;;;;;-145.69;39.39;52250.31;4918137;29;20235;-81
2023/12/27 09:21:06;;;;;;;1.37;1.00;;;;;;;-145.69;38.94;52250.31;4909618;29;20204;-81
2023/12/27 09:23:37;;;;;;;1.60;1.00;;;;;;;-145.69;39.69;52230.50;4911010;29;20200;-80
2023/12/27 09:26:04;;;;;;;3.03;1.13;;;;;;;-145.69;39.80;52240.41;4917951;29;20584;-80
2023/12/27 09:28:31;;;;;;;2.07;1.13;;;;;;;-145.69;40.20;52282.00;4917713;29;20741;-79
2023/12/27 09:30:58;;;;;;;2.00;0.83;;;;;;;-145.69;39.78;52254.28;4917754;29;20200;-79
2023/12/27 09:33:31;;;;;;;1.27;1.17;;;;;;;-145.69;39.57;52260.22;4917429;29;20227;-79
2023/12/27 09:35:57;;;;;;;2.47;1.20;;;;;;;-145.69;40.24;52289.91;4917975;29;20241;-79
2023/12/27 09:38:27;;;;;;;2.60;1.10;;;;;;;-145.69;39.34;52230.50;4916638;29;20244;-80
2023/12/27 09:40:55;;;;;;;1.57;0.90;;;;;;;-145.69;39.47;52278.03;4917535;29;20652;-80
2023/12/27 09:43:25;;;;;;;1.10;1.00;;;;;;;-145.69;39.54;52238.44;4917491;29;20207;-79
2023/12/27 09:45:57;;;;;;;2.40;1.07;;;;;;;-145.69;39.97;52218.63;4917266;29;20540;-80
2023/12/27 09:48:34;;;;;;;1.50;1.00;;;;;;;-145.69;39.67;52234.47;4917396;29;20635;-80
2023/12/27 09:51:01;;;;;;;1.27;0.90;;;;;;;-145.69;39.16;52222.59;4917481;29;20211;-79
2023/12/27 09:53:28;;;;;;;1.90;1.20;;;;;;;-145.69;35.75;52238.44;4917521;29;20679;-80
2023/12/27 09:55:56;;;;;;;2.53;0.90;;;;;;;-145.69;37.91;52250.31;4917549;29;20553;-79
2023/12/27 09:58:27;;;;;;;2.03;1.73;;;;;;;-145.69;36.80;52230.50;4898696;29;20232;-80
2023/12/27 10:01:02;;;;;;;1.80;1.10;;;;;;;-145.69;35.22;52210.72;4911107;29;20210;-79
2023/12/27 10:03:38;;;;;;;2.50;1.10;;;;;;;-145.69;35.47;52210.72;4917125;29;20204;-80
2023/12/27 10:06:30;;;;;;;1.63;1.10;;;;;;;-145.69;34.99;52218.63;4916453;29;20215;-79
2023/12/27 10:08:59;;;;;;;2.93;1.20;;;;;;;-145.69;34.97;52234.47;4916563;29;20287;-79
2023/12/27 10:11:28;;;;;;;5.17;1.20;;;;;;;-145.69;35.24;52210.72;4917539;29;20203;-80
2023/12/27 10:13:54;;;;;;;2.37;1.30;;;;;;;-145.69;34.33;52212.69;4917007;29;20231;-80
2023/12/27 10:16:26;;;;;;;1.50;0.83;;;;;;;-145.69;34.31;52214.66;4916433;29;20849;-79
2023/12/27 10:18:59;;;;;;;1.60;1.20;;;;;;;-145.69;34.23;52184.97;4916798;29;20238;-80
2023/12/27 10:21:27;;;;;;;2.57;1.00;;;;;;;-145.69;34.45;52184.97;4916931;29;20682;-80
2023/12/27 10:23:54;;;;;;;5.80;1.92;;;;;;;-145.69;33.65;52198.81;4914214;29;20208;-80
2023/12/27 10:26:20;;;;;;;7.40;2.10;;;;;;;-145.69;34.38;52182.97;4915225;29;20272;-80
2023/12/27 10:28:51;;;;;;;5.65;2.40;;;;;;;-145.69;33.58;52196.84;4916745;29;20668;-80
2023/12/27 10:31:20;;;;;;;4.72;1.70;;;;;;;-145.69;33.88;52175.06;4916494;29;20208;-80
2023/12/27 10:33:52;;;;;;;4.40;1.40;;;;;;;-145.69;34.22;52171.09;4915915;29;20620;-81
2023/12/27 10:36:25;;;;;;;5.60;2.50;;;;;;;-145.69;33.21;52175.06;4916893;29;20211;-81
2023/12/27 10:38:54;;;;;;;1.27;1.10;;;;;;;-145.69;31.61;52188.91;4913912;29;20205;-80
2023/12/27 10:41:23;;;;;;;2.40;1.30;;;;;;;-145.69;33.20;52182.97;4914925;29;20192;-81
2023/12/27 10:43:50;;;;;;;1.80;0.95;;;;;;;-145.69;33.87;52192.88;4916712;29;20204;-81
2023/12/27 10:46:17;;;;;;;3.23;0.97;;;;;;;-145.69;31.35;52159.22;4916262;29;20207;-81
2023/12/27 10:48:51;;;;;;;0.80;0.70;;;;;;;-145.69;31.01;52177.03;4915964;29;20196;-81
2023/12/27 10:51:23;;;;;;;2.50;1.10;;;;;;;-145.69;31.25;52186.94;4914133;29;20204;-80
2023/12/27 10:53:54;;;;;;;2.45;1.50;;;;;;;-145.69;31.42;52173.09;4915884;29;20224;-81
2023/12/27 10:56:25;;;;;;;2.15;1.17;;;;;;;-145.69;30.78;52159.22;4915970;29;20200;-81
2023/12/27 10:58:55;;;;;;;1.35;1.08;;;;;;;-145.69;30.76;52177.03;4916420;29;20215;-81
2023/12/27 11:01:26;;;;;;;1.17;0.73;;;;;;;-145.69;29.69;52163.19;4916116;29;20214;-80
2023/12/27 11:03:55;;;;;;;2.50;1.20;;;;;;;-145.69;30.02;52186.94;4916168;29;20205;-80
2023/12/27 11:06:23;;;;;;;1.17;0.90;;;;;;;-145.69;29.10;52151.28;4914965;29;20215;-81
2023/12/27 11:08:53;;;;;;;2.35;0.85;;;;;;;-145.69;28.65;52194.88;4916685;29;20212;-81
2023/12/27 11:11:31;;;;;;;0.82;0.80;;;;;;;-145.69;28.95;52151.28;4916376;29;20243;-81
2023/12/27 11:14:07;;;;;;;0.93;0.90;;;;;;;-145.69;29.17;52139.41;4915684;29;20314;-81
2023/12/27 11:16:35;;;;;;;1.42;0.85;;;;;;;-145.69;29.63;52181.00;4905929;29;20668;-81
2023/12/27 11:19:05;;;;;;;1.38;0.90;;;;;;;-145.69;30.05;52159.22;4910827;29;20201;-81